Terminal Aerodrome Forecast
Issued by NWS

Home | Current Version | Previous Version | Text Only | Print | Product List | Glossary On
Versions: 1 2 3 4 5 6 7 8 9 10 11 12
000
FTUS45 KABQ 012340
TAFFMN
TAF
KFMN 012340Z 0200/0224 24008KT P6SM VCSH SCT110 BKN180
      TEMPO 0200/0203 VRB14G25KT BKN090
     FM020400 13008KT P6SM BKN140
     FM020800 09005KT P6SM SCT120 SCT200
     FM021930 24009KT P6SM FEW090 SCT150=

USA.gov is the U.S. government's official web portal to all federal, state and local government web resources and services.